Italic G — IBYH — position and weather

sailwx.info

Track history (hours):
 
Tides and Currents Weather Stations Pressure Air Temp Water Temp Dewpoint Dewpoint Depression Visibility Wind Speed Wind Dir Waves Ship Positions

Italic G

Last reported at 2017-Nov-18 22:09 UTC. Time now 2017-Nov-19 21:54 UTC.
Position N 49°14' W 007°24'.

Length 229 m; draft 9.8 m.

Type: Cargo ship. MMSI: 247282300.

Date/timePositionNaut miles runAvg speedWind from/ knotsBaromVisibWave heightAir tempDewpointWater temp
2017-Nov-18 22:09N 49°14' W 007°24'3910.1
2017-Nov-18 18:16N 49°23' W 006°25'13 9.2
2017-Nov-18 16:50N 49°26' W 006°05'5 8.9
2017-Nov-18 16:15N 49°27' W 005°58'2 9.0
2017-Nov-18 15:59N 49°27' W 005°54'12 9.0
2017-Nov-18 14:39N 49°30' W 005°36'2 9.4
2017-Nov-18 14:27N 49°31' W 005°33'6 9.4
2017-Nov-18 13:49N 49°32' W 005°24'7 9.9
2017-Nov-18 13:05N 49°34' W 005°13'510.4
2017-Nov-18 12:38N 49°35' W 005°06'510.8
2017-Nov-18 12:12N 49°36' W 004°59'311.2
2017-Nov-18 11:59N 49°36' W 004°56'5 8.2
2017-Nov-18 11:23N 49°38' W 004°48'2 6.2
2017-Nov-18 11:00N 49°38' W 004°45'3 6.3
2017-Nov-18 10:30N 49°39' W 004°40'3 6.3
2017-Nov-18 10:00N 49°40' W 004°35'3 6.4
2017-Nov-18 09:28N 49°41' W 004°30'4 8.4
2017-Nov-18 09:00N 49°42' W 004°24'7 9.6
2017-Nov-18 08:15N 49°44' W 004°13'3 9.3
2017-Nov-18 07:54N 49°45' W 004°09'7 8.7
2017-Nov-18 07:07N 49°47' W 003°59'7 8.1
2017-Nov-18 06:12N 49°49' W 003°48'2 7.8
2017-Nov-18 06:00N 49°50' W 003°46'8 7.7
2017-Nov-18 05:01N 49°52' W 003°34'1 7.8
2017-Nov-18 04:51N 49°52' W 003°32'3 8.0
2017-Nov-18 04:30N 49°53' W 003°28'4 8.4
2017-Nov-18 04:00N 49°54' W 003°22'13 9.4
2017-Nov-18 02:38N 49°57' W 003°03'110.2
2017-Nov-18 02:30N 49°58' W 003°01'910.8
2017-Nov-18 01:40N 50°00' W 002°48'211.6
2017-Nov-18 01:29N 50°01' W 002°44'3011.5
2017-Nov-17 22:51N 50°09' W 001°59'6 9.2
2017-Nov-17 22:09N 50°11' W 001°49'1 8.4
2017-Nov-17 22:00N 50°11' W 001°47'4 7.9
2017-Nov-17 21:30N 50°12' W 001°41'4 7.2
2017-Nov-17 21:00N 50°13' W 001°36'3 6.7
2017-Nov-17 20:30N 50°13' W 001°31'3 6.3
2017-Nov-17 20:00N 50°14' W 001°26'3 6.1
2017-Nov-17 19:30N 50°15' W 001°22'3 6.0
2017-Nov-17 19:00N 50°16' W 001°17'3 6.2
2017-Nov-17 18:30N 50°17' W 001°12'30 9.2
2017-Nov-17 15:14N 50°25' W 000°27'311.1
2017-Nov-17 15:00N 50°26' W 000°23'611.1
2017-Nov-17 14:30N 50°27' W 000°15'611.1
2017-Nov-17 14:00N 50°29' W 000°06'511.0
2017-Nov-17 13:30N 50°30' E 000°02'611.0
2017-Nov-17 13:00N 50°32' E 000°10'510.9
2017-Nov-17 12:30N 50°33' E 000°19'510.6
2017-Nov-17 12:00N 50°34' E 000°27'510.1
2017-Nov-17 11:30N 50°36' E 000°34'5 9.8
2017-Nov-17 11:00N 50°39' E 000°40'5 9.5
2017-Nov-17 10:30N 50°42' E 000°47'5 9.3
2017-Nov-17 10:00N 50°44' E 000°53'5 9.1
2017-Nov-17 09:30N 50°47' E 000°59'5 9.2
2017-Nov-17 09:00N 50°49' E 001°05'5 9.5
2017-Nov-17 08:30N 50°52' E 001°11'510.8
2017-Nov-17 08:00N 50°55' E 001°18'612.4
2017-Nov-17 07:30N 50°60' E 001°25'713.6
2017-Nov-17 07:00N 51°05' E 001°32'713.7
2017-Nov-17 06:30N 51°09' E 001°40'713.0
2017-Nov-17 06:00N 51°14' E 001°47'612.2
2017-Nov-17 05:30N 51°19' E 001°53'611.3
2017-Nov-17 05:00N 51°24' E 001°58'4 8.3
2017-Nov-17 04:30N 51°24' E 002°04'510.1
2017-Nov-17 04:00N 51°22' E 002°12'5 9.8
2017-Nov-17 03:30N 51°21' E 002°19'510.0
2017-Nov-17 03:00N 51°22' E 002°27'5 9.7
2017-Nov-17 02:30N 51°23' E 002°35'9 9.4
2017-Nov-17 01:30N 51°25' E 002°49'611.8
2017-Nov-17 01:01N 51°25' E 002°59'611.4
2017-Nov-17 00:30N 51°24' E 003°08'611.1
2017-Nov-17 00:00N 51°25' E 003°17'510.5
2017-Nov-16 23:30N 51°25' E 003°25'5 9.6
2017-Nov-16 23:00N 51°25' E 003°33'5 9.2
2017-Nov-16 22:30N 51°27' E 003°40'2 3.4
2017-Nov-16 22:01N 51°27' E 003°43'0 0.7
2017-Nov-16 21:29N 51°27' E 003°42'0 0.0
2017-Nov-16 20:59N 51°27' E 003°42'0 0.0
2017-Nov-16 20:29N 51°27' E 003°42'0 0.0
2017-Nov-16 19:59N 51°27' E 003°42'0 0.0
2017-Nov-16 19:29N 51°27' E 003°42'0 0.0
2017-Nov-16 18:59N 51°27' E 003°42'0 0.0
2017-Nov-16 18:29N 51°27' E 003°42'0 0.0
2017-Nov-16 17:59N 51°27' E 003°42'0 0.0
2017-Nov-16 17:29N 51°27' E 003°42'0 0.0
2017-Nov-16 16:59N 51°27' E 003°42'0 0.0
2017-Nov-16 16:29N 51°27' E 003°42'0 0.0
2017-Nov-16 15:53N 51°27' E 003°42'0 0.0
2017-Nov-16 15:29N 51°27' E 003°42'0 0.0
2017-Nov-16 14:56N 51°27' E 003°42'0 0.0
2017-Nov-16 14:29N 51°27' E 003°42'0 0.0
2017-Nov-16 13:59N 51°27' E 003°42'0 0.0
2017-Nov-16 13:26N 51°27' E 003°42'0 0.0
2017-Nov-16 12:59N 51°27' E 003°42'0 0.0
2017-Nov-16 12:29N 51°27' E 003°42'0 0.0
2017-Nov-16 11:59N 51°27' E 003°42'0 0.0
2017-Nov-16 11:29N 51°27' E 003°42'0 0.0
2017-Nov-16 10:59N 51°27' E 003°42'0 0.0
2017-Nov-16 10:29N 51°27' E 003°42'0 0.0
2017-Nov-16 09:59N 51°27' E 003°42'0 0.0
2017-Nov-16 09:29N 51°27' E 003°42'0 0.0
2017-Nov-16 08:59N 51°27' E 003°42'0 0.0
2017-Nov-16 08:29N 51°27' E 003°42'0 0.0
2017-Nov-16 07:56N 51°27' E 003°42'0 0.0
2017-Nov-16 07:29N 51°27' E 003°42'0 0.0
2017-Nov-16 06:47N 51°27' E 003°42'0 0.0
2017-Nov-16 06:23N 51°27' E 003°42'0 0.0
2017-Nov-16 05:59N 51°27' E 003°42'0 0.0
2017-Nov-16 05:29N 51°27' E 003°42'0 0.0
2017-Nov-16 04:53N 51°27' E 003°42'0 0.0
2017-Nov-16 04:29N 51°27' E 003°42'0 0.0
2017-Nov-16 03:59N 51°27' E 003°42'0 0.0
2017-Nov-16 03:29N 51°27' E 003°42'0 0.0
2017-Nov-16 02:59N 51°27' E 003°42'0 0.0
2017-Nov-16 02:29N 51°27' E 003°42'0 0.0
2017-Nov-16 01:59N 51°27' E 003°42'0 0.0
2017-Nov-16 01:29N 51°27' E 003°42'0 0.0
2017-Nov-16 00:59N 51°27' E 003°42'0 0.0
2017-Nov-16 00:11N 51°27' E 003°42'0 0.0
2017-Nov-15 23:59N 51°27' E 003°42'0 0.0
2017-Nov-15 23:29N 51°27' E 003°42'0 0.0
2017-Nov-15 22:59N 51°27' E 003°42'0 0.0
2017-Nov-15 22:29N 51°27' E 003°42'0 0.0
2017-Nov-15 21:59N 51°27' E 003°42'0 0.0
2017-Nov-15 21:29N 51°27' E 003°42'0 0.0
2017-Nov-15 20:59N 51°27' E 003°42'0 0.0
2017-Nov-15 20:26N 51°27' E 003°42'0 0.0
2017-Nov-15 19:59N 51°27' E 003°42'0 0.0
2017-Nov-15 19:26N 51°27' E 003°42'0 0.0
2017-Nov-15 18:59N 51°27' E 003°42'0 0.0
2017-Nov-15 18:29N 51°27' E 003°42'0 0.0
2017-Nov-15 17:59N 51°27' E 003°42'0 0.0
2017-Nov-15 17:29N 51°27' E 003°42'0 0.0
2017-Nov-15 16:59N 51°27' E 003°42'0 0.0
2017-Nov-15 16:29N 51°27' E 003°42'0 0.0
2017-Nov-15 15:59N 51°27' E 003°42'0 0.0
2017-Nov-15 15:29N 51°27' E 003°42'0 0.0
2017-Nov-15 14:59N 51°27' E 003°42'0 0.0
2017-Nov-15 14:29N 51°27' E 003°42'0 0.0
2017-Nov-15 13:59N 51°27' E 003°42'0 0.0
2017-Nov-15 13:29N 51°27' E 003°42'0 0.0
2017-Nov-15 12:59N 51°27' E 003°42'0 0.0
2017-Nov-15 12:23N 51°27' E 003°42'0 0.0
2017-Nov-15 11:59N 51°27' E 003°42'0 0.0
2017-Nov-15 11:26N 51°27' E 003°42'0 0.0
2017-Nov-15 10:59N 51°27' E 003°42'0 0.0
2017-Nov-15 10:29N 51°27' E 003°42'0 0.0
2017-Nov-15 09:59N 51°27' E 003°42'0 0.0
2017-Nov-15 09:29N 51°27' E 003°42'0 0.0
2017-Nov-15 08:59N 51°27' E 003°42'0 0.0
2017-Nov-15 08:29N 51°27' E 003°42'0 0.0
2017-Nov-15 07:59N 51°27' E 003°42'0 0.0
2017-Nov-15 07:29N 51°27' E 003°42'0 0.0
2017-Nov-15 06:53N 51°27' E 003°42'0 0.0
2017-Nov-15 06:29N 51°27' E 003°42'0 0.0
2017-Nov-15 05:59N 51°27' E 003°42'0 0.0
2017-Nov-15 05:29N 51°27' E 003°42'0 0.0
2017-Nov-15 04:59N 51°27' E 003°42'0 0.0
2017-Nov-15 04:29N 51°27' E 003°42'0 0.0
2017-Nov-15 03:59N 51°27' E 003°42'0 0.0
2017-Nov-15 03:29N 51°27' E 003°42'0 0.0
2017-Nov-15 02:59N 51°27' E 003°42'0 0.0
2017-Nov-15 02:29N 51°27' E 003°42'0 0.0
2017-Nov-15 01:59N 51°27' E 003°42'0 0.0
2017-Nov-15 01:29N 51°27' E 003°42'0 0.0
2017-Nov-15 00:59N 51°27' E 003°42'0 0.0
2017-Nov-15 00:29N 51°27' E 003°42'0 0.0
2017-Nov-14 23:59N 51°27' E 003°42'0 0.0
2017-Nov-14 23:29N 51°27' E 003°42'0 0.0
2017-Nov-14 22:59N 51°27' E 003°42'0 0.0
2017-Nov-14 22:23N 51°27' E 003°42'0 0.0
2017-Nov-14 21:53N 51°27' E 003°42'0 0.0
2017-Nov-14 21:23N 51°27' E 003°42'0 0.0
2017-Nov-14 20:59N 51°27' E 003°42'0 0.0
2017-Nov-14 20:29N 51°27' E 003°42'0 0.0
2017-Nov-14 19:59N 51°27' E 003°42'0 0.0
2017-Nov-14 19:29N 51°27' E 003°42'0 0.0
2017-Nov-14 18:59N 51°27' E 003°42'0 0.0
2017-Nov-14 18:29N 51°27' E 003°42'0 0.0
2017-Nov-14 17:59N 51°27' E 003°42'0 0.0
2017-Nov-14 17:29N 51°27' E 003°42'0 0.0
2017-Nov-14 16:59N 51°27' E 003°42'0 0.0
2017-Nov-14 16:26N 51°27' E 003°42'0 0.0
2017-Nov-14 15:59N 51°27' E 003°42'0 0.0
2017-Nov-14 15:29N 51°27' E 003°42'0 0.0
2017-Nov-14 14:59N 51°27' E 003°42'0 0.0
2017-Nov-14 14:29N 51°27' E 003°42'0 0.0
2017-Nov-14 13:59N 51°27' E 003°42'0 0.0
2017-Nov-14 13:29N 51°27' E 003°42'0 0.0
2017-Nov-14 12:56N 51°27' E 003°42'0 0.0
2017-Nov-14 12:30N 51°27' E 003°42'0 0.3
2017-Nov-14 12:00N 51°27' E 003°42'1 1.4
2017-Nov-14 11:30N 51°27' E 003°42'2 3.1
2017-Nov-14 11:00N 51°26' E 003°40'3 6.7
2017-Nov-14 10:30N 51°26' E 003°35'5 9.8
2017-Nov-14 10:00N 51°25' E 003°27'510.4
2017-Nov-14 09:30N 51°24' E 003°19'510.7
2017-Nov-14 09:00N 51°24' E 003°10'5 9.9
2017-Nov-14 08:30N 51°25' E 003°02'5 9.8
2017-Nov-14 08:00N 51°25' E 002°54'510.3
2017-Nov-14 07:29N 51°24' E 002°46'3 7.3
2017-Nov-14 07:00N 51°22' E 002°41'2 3.0
2017-Nov-14 06:28N 51°22' E 002°39'2 4.5
2017-Nov-14 06:00N 51°24' E 002°36'2 3.6
2017-Nov-14 05:23N 51°26' E 002°35'0 0.1
2017-Nov-14 04:59N 51°26' E 002°34'0 0.0
2017-Nov-14 04:14N 51°26' E 002°34'0 0.0
2017-Nov-14 03:59N 51°26' E 002°34'0 0.0
2017-Nov-14 03:29N 51°26' E 002°34'0 0.1
2017-Nov-14 02:56N 51°26' E 002°35'0 0.1
2017-Nov-14 02:29N 51°26' E 002°35'0 0.1
2017-Nov-14 01:44N 51°26' E 002°35'0 0.1
2017-Nov-14 01:29N 51°26' E 002°35'0 0.2
2017-Nov-14 00:56N 51°26' E 002°35'0 0.1
2017-Nov-14 00:29N 51°26' E 002°35'0 0.0
2017-Nov-13 23:35N 51°26' E 002°35'0 0.0
2017-Nov-13 01:56N 51°26' E 002°34'0 0.0
2017-Nov-13 00:35N 51°26' E 002°35'0 0.0
2017-Nov-13 00:29N 51°26' E 002°35'0 0.0
2017-Nov-12 23:53N 51°26' E 002°35'0 0.1
2017-Nov-12 23:29N 51°26' E 002°35'0 0.0
2017-Nov-12 22:50N 51°26' E 002°35'0 0.0
2017-Nov-12 22:29N 51°26' E 002°35'0 0.1
2017-Nov-12 21:59N 51°26' E 002°35'0 0.1
2017-Nov-12 21:20N 51°26' E 002°35'0 0.0
2017-Nov-12 20:59N 51°26' E 002°35'0 0.0
2017-Nov-12 20:29N 51°26' E 002°35'0 0.0
2017-Nov-12 19:59N 51°26' E 002°35'0 0.0
2017-Nov-12 19:29N 51°26' E 002°35'0 0.0
2017-Nov-12 18:59N 51°26' E 002°35'0 0.0
2017-Nov-12 18:29N 51°26' E 002°35'0 0.0
2017-Nov-12 17:50N 51°26' E 002°35'0 0.0
2017-Nov-12 17:29N 51°26' E 002°35'0 0.1
2017-Nov-12 16:59N 51°26' E 002°35'0 0.0
2017-Nov-12 16:29N 51°26' E 002°35'0 0.0
2017-Nov-12 15:53N 51°26' E 002°35'0 0.0
2017-Nov-12 15:29N 51°26' E 002°35'0 0.0
2017-Nov-12 14:56N 51°26' E 002°35'0 0.0
2017-Nov-12 13:47N 51°26' E 002°35'0 0.1
2017-Nov-12 13:26N 51°26' E 002°35'0 0.1
2017-Nov-12 12:59N 51°26' E 002°35'0 0.1
2017-Nov-12 12:29N 51°26' E 002°35'0 0.0
2017-Nov-12 11:59N 51°26' E 002°35'1 0.9
2017-Nov-12 11:11N 51°25' E 002°35'1 3.7
2017-Nov-12 10:59N 51°24' E 002°35'5 9.2
2017-Nov-12 10:29N 51°22' E 002°29'510.9
2017-Nov-12 10:00N 51°19' E 002°22'711.3
2017-Nov-12 09:23N 51°16' E 002°12'411.6
2017-Nov-12 09:00N 51°14' E 002°06'611.8
2017-Nov-12 08:30N 51°11' E 001°57'612.0
2017-Nov-12 08:00N 51°09' E 001°48'612.0
2017-Nov-12 07:31N 51°05' E 001°41'611.8
2017-Nov-12 07:01N 51°01' E 001°35'6710.5
2017-Nov-12 00:37N 50°20' E 000°10'111.1
2017-Nov-12 00:30N 50°20' E 000°08'510.9
2017-Nov-12 00:01N 50°19' W 000°00'510.7
2017-Nov-11 23:30N 50°17' W 000°08'34 9.4
2017-Nov-11 19:53N 50°08' W 000°60'3 7.9
2017-Nov-11 19:30N 50°07' W 001°04'4 8.0
2017-Nov-11 19:00N 50°06' W 001°10'4 8.1
2017-Nov-11 18:30N 50°06' W 001°17'4 8.2
2017-Nov-11 18:00N 50°05' W 001°23'4 8.8
2017-Nov-11 17:30N 50°04' W 001°29'5 9.3
2017-Nov-11 17:00N 50°02' W 001°36'5 9.9
2017-Nov-11 16:30N 50°00' W 001°43'510.5
2017-Nov-11 16:00N 49°59' W 001°51'5811.6
2017-Nov-11 11:00N 49°44' W 003°18'1111.1
2017-Nov-11 09:59N 49°41' W 003°35'  
Track history (hours):
 
Tides and Currents Weather Stations Pressure Air Temp Water Temp Dewpoint Dewpoint Depression Visibility Wind Speed Wind Dir Waves Ship Positions

Italic G

Last reported at 2017-Nov-18 22:09 UTC. Time now 2017-Nov-19 21:54 UTC.
Position N 49°14' W 007°24'.

Length 229 m; draft 9.8 m.

Type: Cargo ship. MMSI: 247282300.

Date/timePositionNaut miles runAvg speedWind from/ knotsBaromVisibWave heightAir tempDewpointWater temp
2017-Nov-18 22:09N 49°14' W 007°24'3910.1
2017-Nov-18 18:16N 49°23' W 006°25'13 9.2
2017-Nov-18 16:50N 49°26' W 006°05'5 8.9
2017-Nov-18 16:15N 49°27' W 005°58'2 9.0
2017-Nov-18 15:59N 49°27' W 005°54'12 9.0
2017-Nov-18 14:39N 49°30' W 005°36'2 9.4
2017-Nov-18 14:27N 49°31' W 005°33'6 9.4
2017-Nov-18 13:49N 49°32' W 005°24'7 9.9
2017-Nov-18 13:05N 49°34' W 005°13'510.4
2017-Nov-18 12:38N 49°35' W 005°06'510.8
2017-Nov-18 12:12N 49°36' W 004°59'311.2
2017-Nov-18 11:59N 49°36' W 004°56'5 8.2
2017-Nov-18 11:23N 49°38' W 004°48'2 6.2
2017-Nov-18 11:00N 49°38' W 004°45'3 6.3
2017-Nov-18 10:30N 49°39' W 004°40'3 6.3
2017-Nov-18 10:00N 49°40' W 004°35'3 6.4
2017-Nov-18 09:28N 49°41' W 004°30'4 8.4
2017-Nov-18 09:00N 49°42' W 004°24'7 9.6
2017-Nov-18 08:15N 49°44' W 004°13'3 9.3
2017-Nov-18 07:54N 49°45' W 004°09'7 8.7
2017-Nov-18 07:07N 49°47' W 003°59'7 8.1
2017-Nov-18 06:12N 49°49' W 003°48'2 7.8
2017-Nov-18 06:00N 49°50' W 003°46'8 7.7
2017-Nov-18 05:01N 49°52' W 003°34'1 7.8
2017-Nov-18 04:51N 49°52' W 003°32'3 8.0
2017-Nov-18 04:30N 49°53' W 003°28'4 8.4
2017-Nov-18 04:00N 49°54' W 003°22'13 9.4
2017-Nov-18 02:38N 49°57' W 003°03'110.2
2017-Nov-18 02:30N 49°58' W 003°01'910.8
2017-Nov-18 01:40N 50°00' W 002°48'211.6
2017-Nov-18 01:29N 50°01' W 002°44'3011.5
2017-Nov-17 22:51N 50°09' W 001°59'6 9.2
2017-Nov-17 22:09N 50°11' W 001°49'1 8.4
2017-Nov-17 22:00N 50°11' W 001°47'4 7.9
2017-Nov-17 21:30N 50°12' W 001°41'4 7.2
2017-Nov-17 21:00N 50°13' W 001°36'3 6.7
2017-Nov-17 20:30N 50°13' W 001°31'3 6.3
2017-Nov-17 20:00N 50°14' W 001°26'3 6.1
2017-Nov-17 19:30N 50°15' W 001°22'3 6.0
2017-Nov-17 19:00N 50°16' W 001°17'3 6.2
2017-Nov-17 18:30N 50°17' W 001°12'30 9.2
2017-Nov-17 15:14N 50°25' W 000°27'311.1
2017-Nov-17 15:00N 50°26' W 000°23'611.1
2017-Nov-17 14:30N 50°27' W 000°15'611.1
2017-Nov-17 14:00N 50°29' W 000°06'511.0
2017-Nov-17 13:30N 50°30' E 000°02'611.0
2017-Nov-17 13:00N 50°32' E 000°10'510.9
2017-Nov-17 12:30N 50°33' E 000°19'510.6
2017-Nov-17 12:00N 50°34' E 000°27'510.1
2017-Nov-17 11:30N 50°36' E 000°34'5 9.8
2017-Nov-17 11:00N 50°39' E 000°40'5 9.5
2017-Nov-17 10:30N 50°42' E 000°47'5 9.3
2017-Nov-17 10:00N 50°44' E 000°53'5 9.1
2017-Nov-17 09:30N 50°47' E 000°59'5 9.2
2017-Nov-17 09:00N 50°49' E 001°05'5 9.5
2017-Nov-17 08:30N 50°52' E 001°11'510.8
2017-Nov-17 08:00N 50°55' E 001°18'612.4
2017-Nov-17 07:30N 50°60' E 001°25'713.6
2017-Nov-17 07:00N 51°05' E 001°32'713.7
2017-Nov-17 06:30N 51°09' E 001°40'713.0
2017-Nov-17 06:00N 51°14' E 001°47'612.2
2017-Nov-17 05:30N 51°19' E 001°53'611.3
2017-Nov-17 05:00N 51°24' E 001°58'4 8.3
2017-Nov-17 04:30N 51°24' E 002°04'510.1
2017-Nov-17 04:00N 51°22' E 002°12'5 9.8
2017-Nov-17 03:30N 51°21' E 002°19'510.0
2017-Nov-17 03:00N 51°22' E 002°27'5 9.7
2017-Nov-17 02:30N 51°23' E 002°35'9 9.4
2017-Nov-17 01:30N 51°25' E 002°49'611.8
2017-Nov-17 01:01N 51°25' E 002°59'611.4
2017-Nov-17 00:30N 51°24' E 003°08'611.1
2017-Nov-17 00:00N 51°25' E 003°17'510.5
2017-Nov-16 23:30N 51°25' E 003°25'5 9.6
2017-Nov-16 23:00N 51°25' E 003°33'5 9.2
2017-Nov-16 22:30N 51°27' E 003°40'2 3.4
2017-Nov-16 22:01N 51°27' E 003°43'0 0.7
2017-Nov-16 21:29N 51°27' E 003°42'0 0.0
2017-Nov-16 20:59N 51°27' E 003°42'0 0.0
2017-Nov-16 20:29N 51°27' E 003°42'0 0.0
2017-Nov-16 19:59N 51°27' E 003°42'0 0.0
2017-Nov-16 19:29N 51°27' E 003°42'0 0.0
2017-Nov-16 18:59N 51°27' E 003°42'0 0.0
2017-Nov-16 18:29N 51°27' E 003°42'0 0.0
2017-Nov-16 17:59N 51°27' E 003°42'0 0.0
2017-Nov-16 17:29N 51°27' E 003°42'0 0.0
2017-Nov-16 16:59N 51°27' E 003°42'0 0.0
2017-Nov-16 16:29N 51°27' E 003°42'0 0.0
2017-Nov-16 15:53N 51°27' E 003°42'0 0.0
2017-Nov-16 15:29N 51°27' E 003°42'0 0.0
2017-Nov-16 14:56N 51°27' E 003°42'0 0.0
2017-Nov-16 14:29N 51°27' E 003°42'0 0.0
2017-Nov-16 13:59N 51°27' E 003°42'0 0.0
2017-Nov-16 13:26N 51°27' E 003°42'0 0.0
2017-Nov-16 12:59N 51°27' E 003°42'0 0.0
2017-Nov-16 12:29N 51°27' E 003°42'0 0.0
2017-Nov-16 11:59N 51°27' E 003°42'0 0.0
2017-Nov-16 11:29N 51°27' E 003°42'0 0.0
2017-Nov-16 10:59N 51°27' E 003°42'0 0.0
2017-Nov-16 10:29N 51°27' E 003°42'0 0.0
2017-Nov-16 09:59N 51°27' E 003°42'0 0.0
2017-Nov-16 09:29N 51°27' E 003°42'0 0.0
2017-Nov-16 08:59N 51°27' E 003°42'0 0.0
2017-Nov-16 08:29N 51°27' E 003°42'0 0.0
2017-Nov-16 07:56N 51°27' E 003°42'0 0.0
2017-Nov-16 07:29N 51°27' E 003°42'0 0.0
2017-Nov-16 06:47N 51°27' E 003°42'0 0.0
2017-Nov-16 06:23N 51°27' E 003°42'0 0.0
2017-Nov-16 05:59N 51°27' E 003°42'0 0.0
2017-Nov-16 05:29N 51°27' E 003°42'0 0.0
2017-Nov-16 04:53N 51°27' E 003°42'0 0.0
2017-Nov-16 04:29N 51°27' E 003°42'0 0.0
2017-Nov-16 03:59N 51°27' E 003°42'0 0.0
2017-Nov-16 03:29N 51°27' E 003°42'0 0.0
2017-Nov-16 02:59N 51°27' E 003°42'0 0.0
2017-Nov-16 02:29N 51°27' E 003°42'0 0.0
2017-Nov-16 01:59N 51°27' E 003°42'0 0.0
2017-Nov-16 01:29N 51°27' E 003°42'0 0.0
2017-Nov-16 00:59N 51°27' E 003°42'0 0.0
2017-Nov-16 00:11N 51°27' E 003°42'0 0.0
2017-Nov-15 23:59N 51°27' E 003°42'0 0.0
2017-Nov-15 23:29N 51°27' E 003°42'0 0.0
2017-Nov-15 22:59N 51°27' E 003°42'0 0.0
2017-Nov-15 22:29N 51°27' E 003°42'0 0.0
2017-Nov-15 21:59N 51°27' E 003°42'0 0.0
2017-Nov-15 21:29N 51°27' E 003°42'0 0.0
2017-Nov-15 20:59N 51°27' E 003°42'0 0.0
2017-Nov-15 20:26N 51°27' E 003°42'0 0.0
2017-Nov-15 19:59N 51°27' E 003°42'0 0.0
2017-Nov-15 19:26N 51°27' E 003°42'0 0.0
2017-Nov-15 18:59N 51°27' E 003°42'0 0.0
2017-Nov-15 18:29N 51°27' E 003°42'0 0.0
2017-Nov-15 17:59N 51°27' E 003°42'0 0.0
2017-Nov-15 17:29N 51°27' E 003°42'0 0.0
2017-Nov-15 16:59N 51°27' E 003°42'0 0.0
2017-Nov-15 16:29N 51°27' E 003°42'0 0.0
2017-Nov-15 15:59N 51°27' E 003°42'0 0.0
2017-Nov-15 15:29N 51°27' E 003°42'0 0.0
2017-Nov-15 14:59N 51°27' E 003°42'0 0.0
2017-Nov-15 14:29N 51°27' E 003°42'0 0.0
2017-Nov-15 13:59N 51°27' E 003°42'0 0.0
2017-Nov-15 13:29N 51°27' E 003°42'0 0.0
2017-Nov-15 12:59N 51°27' E 003°42'0 0.0
2017-Nov-15 12:23N 51°27' E 003°42'0 0.0
2017-Nov-15 11:59N 51°27' E 003°42'0 0.0
2017-Nov-15 11:26N 51°27' E 003°42'0 0.0
2017-Nov-15 10:59N 51°27' E 003°42'0 0.0
2017-Nov-15 10:29N 51°27' E 003°42'0 0.0
2017-Nov-15 09:59N 51°27' E 003°42'0 0.0
2017-Nov-15 09:29N 51°27' E 003°42'0 0.0
2017-Nov-15 08:59N 51°27' E 003°42'0 0.0
2017-Nov-15 08:29N 51°27' E 003°42'0 0.0
2017-Nov-15 07:59N 51°27' E 003°42'0 0.0
2017-Nov-15 07:29N 51°27' E 003°42'0 0.0
2017-Nov-15 06:53N 51°27' E 003°42'0 0.0
2017-Nov-15 06:29N 51°27' E 003°42'0 0.0
2017-Nov-15 05:59N 51°27' E 003°42'0 0.0
2017-Nov-15 05:29N 51°27' E 003°42'0 0.0
2017-Nov-15 04:59N 51°27' E 003°42'0 0.0
2017-Nov-15 04:29N 51°27' E 003°42'0 0.0
2017-Nov-15 03:59N 51°27' E 003°42'0 0.0
2017-Nov-15 03:29N 51°27' E 003°42'0 0.0
2017-Nov-15 02:59N 51°27' E 003°42'0 0.0
2017-Nov-15 02:29N 51°27' E 003°42'0 0.0
2017-Nov-15 01:59N 51°27' E 003°42'0 0.0
2017-Nov-15 01:29N 51°27' E 003°42'0 0.0
2017-Nov-15 00:59N 51°27' E 003°42'0 0.0
2017-Nov-15 00:29N 51°27' E 003°42'0 0.0
2017-Nov-14 23:59N 51°27' E 003°42'0 0.0
2017-Nov-14 23:29N 51°27' E 003°42'0 0.0
2017-Nov-14 22:59N 51°27' E 003°42'0 0.0
2017-Nov-14 22:23N 51°27' E 003°42'0 0.0
2017-Nov-14 21:53N 51°27' E 003°42'0 0.0
2017-Nov-14 21:23N 51°27' E 003°42'0 0.0
2017-Nov-14 20:59N 51°27' E 003°42'0 0.0
2017-Nov-14 20:29N 51°27' E 003°42'0 0.0
2017-Nov-14 19:59N 51°27' E 003°42'0 0.0
2017-Nov-14 19:29N 51°27' E 003°42'0 0.0
2017-Nov-14 18:59N 51°27' E 003°42'0 0.0
2017-Nov-14 18:29N 51°27' E 003°42'0 0.0
2017-Nov-14 17:59N 51°27' E 003°42'0 0.0
2017-Nov-14 17:29N 51°27' E 003°42'0 0.0
2017-Nov-14 16:59N 51°27' E 003°42'0 0.0
2017-Nov-14 16:26N 51°27' E 003°42'0 0.0
2017-Nov-14 15:59N 51°27' E 003°42'0 0.0
2017-Nov-14 15:29N 51°27' E 003°42'0 0.0
2017-Nov-14 14:59N 51°27' E 003°42'0 0.0
2017-Nov-14 14:29N 51°27' E 003°42'0 0.0
2017-Nov-14 13:59N 51°27' E 003°42'0 0.0
2017-Nov-14 13:29N 51°27' E 003°42'0 0.0
2017-Nov-14 12:56N 51°27' E 003°42'0 0.0
2017-Nov-14 12:30N 51°27' E 003°42'0 0.3
2017-Nov-14 12:00N 51°27' E 003°42'1 1.4
2017-Nov-14 11:30N 51°27' E 003°42'2 3.1
2017-Nov-14 11:00N 51°26' E 003°40'3 6.7
2017-Nov-14 10:30N 51°26' E 003°35'5 9.8
2017-Nov-14 10:00N 51°25' E 003°27'510.4
2017-Nov-14 09:30N 51°24' E 003°19'510.7
2017-Nov-14 09:00N 51°24' E 003°10'5 9.9
2017-Nov-14 08:30N 51°25' E 003°02'5 9.8
2017-Nov-14 08:00N 51°25' E 002°54'510.3
2017-Nov-14 07:29N 51°24' E 002°46'3 7.3
2017-Nov-14 07:00N 51°22' E 002°41'2 3.0
2017-Nov-14 06:28N 51°22' E 002°39'2 4.5
2017-Nov-14 06:00N 51°24' E 002°36'2 3.6
2017-Nov-14 05:23N 51°26' E 002°35'0 0.1
2017-Nov-14 04:59N 51°26' E 002°34'0 0.0
2017-Nov-14 04:14N 51°26' E 002°34'0 0.0
2017-Nov-14 03:59N 51°26' E 002°34'0 0.0
2017-Nov-14 03:29N 51°26' E 002°34'0 0.1
2017-Nov-14 02:56N 51°26' E 002°35'0 0.1
2017-Nov-14 02:29N 51°26' E 002°35'0 0.1
2017-Nov-14 01:44N 51°26' E 002°35'0 0.1
2017-Nov-14 01:29N 51°26' E 002°35'0 0.2
2017-Nov-14 00:56N 51°26' E 002°35'0 0.1
2017-Nov-14 00:29N 51°26' E 002°35'0 0.0
2017-Nov-13 23:35N 51°26' E 002°35'0 0.0
2017-Nov-13 01:56N 51°26' E 002°34'0 0.0
2017-Nov-13 00:35N 51°26' E 002°35'0 0.0
2017-Nov-13 00:29N 51°26' E 002°35'0 0.0
2017-Nov-12 23:53N 51°26' E 002°35'0 0.1
2017-Nov-12 23:29N 51°26' E 002°35'0 0.0
2017-Nov-12 22:50N 51°26' E 002°35'0 0.0
2017-Nov-12 22:29N 51°26' E 002°35'0 0.1
2017-Nov-12 21:59N 51°26' E 002°35'0 0.1
2017-Nov-12 21:20N 51°26' E 002°35'0 0.0
2017-Nov-12 20:59N 51°26' E 002°35'0 0.0
2017-Nov-12 20:29N 51°26' E 002°35'0 0.0
2017-Nov-12 19:59N 51°26' E 002°35'0 0.0
2017-Nov-12 19:29N 51°26' E 002°35'0 0.0
2017-Nov-12 18:59N 51°26' E 002°35'0 0.0
2017-Nov-12 18:29N 51°26' E 002°35'0 0.0
2017-Nov-12 17:50N 51°26' E 002°35'0 0.0
2017-Nov-12 17:29N 51°26' E 002°35'0 0.1
2017-Nov-12 16:59N 51°26' E 002°35'0 0.0
2017-Nov-12 16:29N 51°26' E 002°35'0 0.0
2017-Nov-12 15:53N 51°26' E 002°35'0 0.0
2017-Nov-12 15:29N 51°26' E 002°35'0 0.0
2017-Nov-12 14:56N 51°26' E 002°35'0 0.0
2017-Nov-12 13:47N 51°26' E 002°35'0 0.1
2017-Nov-12 13:26N 51°26' E 002°35'0 0.1
2017-Nov-12 12:59N 51°26' E 002°35'0 0.1
2017-Nov-12 12:29N 51°26' E 002°35'0 0.0
2017-Nov-12 11:59N 51°26' E 002°35'1 0.9
2017-Nov-12 11:11N 51°25' E 002°35'1 3.7
2017-Nov-12 10:59N 51°24' E 002°35'5 9.2
2017-Nov-12 10:29N 51°22' E 002°29'510.9
2017-Nov-12 10:00N 51°19' E 002°22'711.3
2017-Nov-12 09:23N 51°16' E 002°12'411.6
2017-Nov-12 09:00N 51°14' E 002°06'611.8
2017-Nov-12 08:30N 51°11' E 001°57'612.0
2017-Nov-12 08:00N 51°09' E 001°48'612.0
2017-Nov-12 07:31N 51°05' E 001°41'611.8
2017-Nov-12 07:01N 51°01' E 001°35'6710.5
2017-Nov-12 00:37N 50°20' E 000°10'111.1
2017-Nov-12 00:30N 50°20' E 000°08'510.9
2017-Nov-12 00:01N 50°19' W 000°00'510.7
2017-Nov-11 23:30N 50°17' W 000°08'34 9.4
2017-Nov-11 19:53N 50°08' W 000°60'3 7.9
2017-Nov-11 19:30N 50°07' W 001°04'4 8.0
2017-Nov-11 19:00N 50°06' W 001°10'4 8.1
2017-Nov-11 18:30N 50°06' W 001°17'4 8.2
2017-Nov-11 18:00N 50°05' W 001°23'4 8.8
2017-Nov-11 17:30N 50°04' W 001°29'5 9.3
2017-Nov-11 17:00N 50°02' W 001°36'5 9.9
2017-Nov-11 16:30N 50°00' W 001°43'510.5
2017-Nov-11 16:00N 49°59' W 001°51'5811.6
2017-Nov-11 11:00N 49°44' W 003°18'1111.1
2017-Nov-11 09:59N 49°41' W 003°35'  

Dump ship's entire track history